Time;durP1;ratioP1;P1;durP2;ratioP2;P2;SDS_P1;SDS_P2;PMS_P1;PMS_P2;Temp;Humidity;BMP_temperature;BMP_pressure;BME280_temperature;BME280_humidity;BME280_pressure;Samples;Min_cycle;Max_cycle;Signal;HPM_P1;HPM_P2
2023/02/12 00:02:03;;;;;;;27.97;20.73;;;8.90;99.90;;;;;;5072446;28;20212;-60
2023/02/12 00:04:30;;;;;;;30.73;20.13;;;8.80;99.90;;;;;;5072468;28;20222;-60
2023/02/12 00:06:58;;;;;;;26.83;18.97;;;8.80;99.90;;;;;;5072234;28;20228;-60
2023/02/12 00:09:25;;;;;;;27.67;19.77;;;8.70;99.90;;;;;;5071971;28;20204;-59
2023/02/12 00:11:52;;;;;;;27.97;19.80;;;8.60;99.90;;;;;;5072394;28;20650;-61
2023/02/12 00:14:18;;;;;;;28.97;19.10;;;8.50;99.90;;;;;;5071788;28;20220;-59
2023/02/12 00:16:45;;;;;;;27.00;19.33;;;8.40;99.90;;;;;;5072033;28;20273;-60
2023/02/12 00:19:12;;;;;;;28.00;19.57;;;8.40;99.90;;;;;;5072087;28;20645;-60
2023/02/12 00:21:39;;;;;;;27.17;19.27;;;8.30;99.90;;;;;;5071514;28;20589;-59
2023/02/12 00:24:07;;;;;;;26.97;18.73;;;8.30;99.90;;;;;;5072048;28;20205;-59
2023/02/12 00:26:35;;;;;;;25.97;18.10;;;8.20;99.90;;;;;;5072175;28;20315;-59
2023/02/12 00:29:02;;;;;;;24.13;18.60;;;8.20;99.90;;;;;;5071919;28;20209;-60
2023/02/12 00:31:30;;;;;;;25.93;17.70;;;8.20;99.90;;;;;;5071480;28;20418;-61
2023/02/12 00:33:59;;;;;;;24.80;17.43;;;8.20;99.90;;;;;;5071333;28;20646;-60
2023/02/12 00:36:28;;;;;;;22.80;17.40;;;8.20;99.90;;;;;;5071478;28;20296;-60
2023/02/12 00:38:56;;;;;;;24.77;17.97;;;8.30;99.90;;;;;;5071613;28;20646;-59
2023/02/12 00:41:25;;;;;;;23.10;17.80;;;8.30;99.90;;;;;;5071454;28;20245;-60
2023/02/12 00:43:52;;;;;;;26.13;18.03;;;8.40;99.90;;;;;;5071409;28;20279;-59
2023/02/12 00:46:19;;;;;;;25.13;17.97;;;8.40;99.90;;;;;;5071290;28;20205;-60
2023/02/12 00:48:46;;;;;;;27.30;19.03;;;8.50;99.90;;;;;;5071298;28;20212;-60
2023/02/12 00:51:13;;;;;;;28.60;17.87;;;8.60;99.90;;;;;;5071489;28;20201;-60
2023/02/12 00:53:40;;;;;;;25.17;18.23;;;8.70;99.90;;;;;;5071483;28;20225;-59
2023/02/12 00:56:07;;;;;;;24.03;18.70;;;8.70;99.90;;;;;;5071430;28;20201;-59
2023/02/12 00:58:35;;;;;;;25.30;17.87;;;8.80;99.90;;;;;;5071108;28;20238;-59
2023/02/12 01:01:02;;;;;;;24.20;17.47;;;8.80;99.90;;;;;;5071294;28;20278;-59
2023/02/12 01:03:28;;;;;;;23.93;17.90;;;8.70;99.90;;;;;;5071193;28;20209;-60
2023/02/12 01:05:55;;;;;;;31.03;20.43;;;8.70;99.90;;;;;;5070948;28;20216;-59
2023/02/12 01:08:22;;;;;;;26.70;19.53;;;8.70;99.90;;;;;;5071096;28;20224;-60
2023/02/12 01:10:56;;;;;;;24.20;17.87;;;8.70;99.90;;;;;;5070635;28;20235;-59
2023/02/12 01:13:24;;;;;;;24.40;17.70;;;8.80;99.90;;;;;;5070678;28;20204;-60
2023/02/12 01:16:02;;;;;;;23.47;17.93;;;8.80;99.90;;;;;;5071180;28;20208;-59
2023/02/12 01:18:28;;;;;;;22.23;17.53;;;8.70;99.90;;;;;;5071235;28;20229;-59
2023/02/12 01:20:56;;;;;;;25.20;17.80;;;8.70;99.90;;;;;;5070678;28;20220;-59
2023/02/12 01:23:23;;;;;;;25.40;18.47;;;8.60;99.90;;;;;;5071377;28;20299;-60
2023/02/12 01:25:50;;;;;;;25.23;19.20;;;8.60;99.90;;;;;;5071104;28;20209;-60
2023/02/12 01:28:16;;;;;;;24.83;18.40;;;8.60;99.90;;;;;;5070660;28;20268;-60
2023/02/12 01:30:43;;;;;;;26.40;18.33;;;8.70;99.90;;;;;;5070617;28;20201;-60
2023/02/12 01:33:11;;;;;;;24.27;18.57;;;8.70;99.90;;;;;;5070882;28;20258;-60
2023/02/12 01:35:38;;;;;;;22.53;18.00;;;8.80;99.90;;;;;;5070675;28;20236;-59
2023/02/12 01:38:04;;;;;;;24.97;18.80;;;8.80;99.90;;;;;;5070558;28;20278;-59
2023/02/12 01:40:31;;;;;;;23.13;18.50;;;8.90;99.90;;;;;;5070410;28;20657;-60
2023/02/12 01:43:01;;;;;;;23.37;18.30;;;8.80;99.90;;;;;;5070871;28;20209;-59
2023/02/12 01:45:52;;;;;;;23.90;17.50;;;8.90;99.90;;;;;;5070958;28;20239;-60
2023/02/12 01:48:24;;;;;;;26.53;19.40;;;8.80;99.90;;;;;;5070943;28;20235;-60
2023/02/12 01:50:52;;;;;;;29.50;19.60;;;8.80;99.90;;;;;;5073747;28;20653;-60
2023/02/12 01:53:21;;;;;;;24.47;18.57;;;8.80;99.90;;;;;;5074724;28;20254;-60
2023/02/12 01:55:51;;;;;;;28.57;18.67;;;8.70;99.90;;;;;;5074748;28;20672;-61
2023/02/12 01:58:18;;;;;;;25.57;18.00;;;8.70;99.90;;;;;;5074812;28;20631;-59
2023/02/12 02:00:45;;;;;;;25.93;19.77;;;8.60;99.90;;;;;;5074427;28;20204;-59
2023/02/12 02:03:13;;;;;;;22.20;17.07;;;8.60;99.90;;;;;;5074863;28;20338;-60
2023/02/12 02:05:47;;;;;;;21.93;17.83;;;8.60;99.90;;;;;;5074543;28;20246;-60
2023/02/12 02:08:13;;;;;;;26.00;19.37;;;8.50;99.90;;;;;;5074682;28;20236;-60
2023/02/12 02:10:40;;;;;;;28.50;19.17;;;8.40;99.90;;;;;;5074569;28;20209;-59
2023/02/12 02:15:56;;;;;;;23.43;17.87;;;8.40;99.90;;;;;;5074425;28;20506;-61
2023/02/12 02:18:30;;;;;;;22.47;17.70;;;8.50;99.90;;;;;;5074710;28;20233;-60
2023/02/12 02:21:24;;;;;;;23.93;17.60;;;8.60;99.90;;;;;;5074434;28;20205;-60
2023/02/12 02:24:19;;;;;;;23.20;17.67;;;8.60;99.90;;;;;;5074198;28;20722;-59
2023/02/12 02:27:18;;;;;;;22.80;17.87;;;8.70;99.90;;;;;;5074447;28;20225;-61
2023/02/12 02:32:55;;;;;;;23.23;16.70;;;8.80;99.90;;;;;;5108850;27;20982;-60
2023/02/12 02:35:28;;;;;;;22.67;17.17;;;8.80;99.90;;;;;;5108864;28;20206;-60
2023/02/12 02:38:05;;;;;;;21.13;17.10;;;8.90;99.90;;;;;;5094955;28;20231;-61
2023/02/12 02:40:40;;;;;;;20.20;17.00;;;8.80;99.90;;;;;;5088872;28;20306;-60
2023/02/12 02:43:14;;;;;;;24.73;17.80;;;8.80;99.90;;;;;;5102287;22;20225;-68
2023/02/12 02:45:45;;;;;;;23.10;16.57;;;8.70;99.90;;;;;;5060891;28;20200;-70
2023/02/12 02:48:18;;;;;;;23.40;17.77;;;8.60;99.90;;;;;;5070182;28;20209;-67
2023/02/12 02:50:51;;;;;;;23.27;17.33;;;8.50;99.90;;;;;;5070151;28;20216;-68
2023/02/12 02:53:22;;;;;;;21.63;17.37;;;8.40;99.90;;;;;;5076956;28;20235;-68
2023/02/12 02:55:52;;;;;;;22.63;17.27;;;8.40;99.90;;;;;;5090234;28;20215;-67
2023/02/12 02:58:23;;;;;;;23.77;17.30;;;8.30;99.90;;;;;;5090159;28;20216;-70
2023/02/12 03:00:55;;;;;;;21.13;17.07;;;8.40;99.90;;;;;;5089493;28;20576;-68
2023/02/12 03:03:28;;;;;;;22.77;17.70;;;8.40;99.90;;;;;;5089232;28;20278;-68
2023/02/12 03:05:59;;;;;;;23.83;18.50;;;8.40;99.90;;;;;;5089068;28;20200;-67
2023/02/12 03:08:33;;;;;;;26.07;18.90;;;8.30;99.90;;;;;;5089107;28;20208;-68
2023/02/12 03:11:04;;;;;;;25.87;18.77;;;8.30;99.90;;;;;;5089135;28;20227;-68
2023/02/12 03:13:37;;;;;;;24.93;17.97;;;8.20;99.90;;;;;;5089356;28;20440;-70
2023/02/12 03:16:09;;;;;;;22.53;17.60;;;8.30;99.90;;;;;;5089888;28;20219;-67
2023/02/12 03:18:43;;;;;;;25.77;17.87;;;8.30;99.90;;;;;;5089686;28;20180;-67
2023/02/12 03:21:14;;;;;;;26.73;18.10;;;8.20;99.90;;;;;;5089694;28;20261;-69
2023/02/12 03:23:46;;;;;;;25.20;18.33;;;8.20;99.90;;;;;;5091073;28;20224;-67
2023/02/12 03:26:19;;;;;;;21.73;17.40;;;8.20;99.90;;;;;;5089889;28;20350;-67
2023/02/12 03:28:46;;;;;;;25.17;18.60;;;8.20;99.90;;;;;;5089642;28;20240;-67
2023/02/12 03:31:28;;;;;;;23.47;18.80;;;8.20;99.90;;;;;;5090410;28;20228;-68
2023/02/12 03:34:05;;;;;;;23.03;18.33;;;8.30;99.90;;;;;;5089321;28;20269;-68
2023/02/12 03:36:42;;;;;;;23.63;17.90;;;8.30;99.90;;;;;;5089090;28;20231;-67
2023/02/12 03:39:13;;;;;;;26.67;18.67;;;8.40;99.90;;;;;;5088934;28;20212;-67
2023/02/12 03:41:45;;;;;;;22.80;18.30;;;8.40;99.90;;;;;;5089609;28;20201;-67
2023/02/12 03:44:22;;;;;;;23.47;17.93;;;8.40;99.90;;;;;;5074694;28;20313;-69
2023/02/12 03:47:01;;;;;;;25.07;19.47;;;8.40;99.90;;;;;;5076490;28;20213;-67
2023/02/12 03:49:32;;;;;;;23.40;18.13;;;8.40;99.90;;;;;;5076238;28;20688;-67
2023/02/12 03:51:59;;;;;;;24.27;18.47;;;8.30;99.90;;;;;;5075170;28;20425;-67
2023/02/12 03:54:27;;;;;;;26.67;19.53;;;8.30;99.90;;;;;;5075141;28;20712;-67
2023/02/12 03:56:57;;;;;;;26.67;19.10;;;8.30;99.90;;;;;;5075413;28;20216;-67
2023/02/12 03:59:25;;;;;;;22.93;17.90;;;8.30;99.90;;;;;;5075916;28;20193;-67
2023/02/12 04:01:54;;;;;;;25.63;18.47;;;8.20;99.90;;;;;;5075859;28;20661;-67
2023/02/12 04:04:22;;;;;;;25.90;19.17;;;8.20;99.90;;;;;;5075468;28;20229;-67
2023/02/12 04:06:52;;;;;;;25.00;18.67;;;8.20;99.90;;;;;;5076878;28;20215;-67
2023/02/12 04:09:20;;;;;;;24.27;18.20;;;8.20;99.90;;;;;;5082012;28;20803;-68
2023/02/12 04:12:00;;;;;;;26.53;19.73;;;8.20;99.90;;;;;;5075747;28;20240;-67
2023/02/12 04:14:34;;;;;;;24.00;18.53;;;8.30;99.90;;;;;;5075010;28;20229;-68
2023/02/12 04:17:08;;;;;;;23.97;18.47;;;8.30;99.90;;;;;;5075526;28;20211;-68
2023/02/12 04:19:48;;;;;;;25.83;19.20;;;8.30;99.90;;;;;;5075295;28;20209;-69
2023/02/12 04:22:28;;;;;;;26.90;19.23;;;8.30;99.90;;;;;;5076008;28;20205;-68
2023/02/12 04:25:06;;;;;;;23.90;18.10;;;8.30;99.90;;;;;;5076115;28;20189;-68
2023/02/12 04:27:42;;;;;;;24.57;18.90;;;8.30;99.90;;;;;;5074820;28;20220;-68
2023/02/12 04:30:14;;;;;;;27.00;20.43;;;8.30;99.90;;;;;;5074388;28;20208;-69
2023/02/12 04:32:48;;;;;;;26.43;18.87;;;8.10;99.90;;;;;;5074206;28;20221;-69
2023/02/12 04:35:21;;;;;;;23.10;17.87;;;8.00;99.90;;;;;;5074151;28;20215;-69
2023/02/12 04:37:53;;;;;;;23.13;18.43;;;7.90;99.90;;;;;;5073910;28;20691;-69
2023/02/12 04:40:21;;;;;;;25.13;19.03;;;7.80;99.90;;;;;;5073813;28;20209;-69
2023/02/12 04:42:50;;;;;;;30.90;23.77;;;7.80;99.90;;;;;;5073589;28;20217;-68
2023/02/12 04:45:21;;;;;;;26.17;19.40;;;7.80;99.90;;;;;;5073678;28;20574;-69
2023/02/12 04:47:48;;;;;;;26.17;18.57;;;7.80;99.90;;;;;;5074000;28;20193;-69
2023/02/12 04:50:15;;;;;;;26.23;19.73;;;7.80;99.90;;;;;;5072947;28;20213;-68
2023/02/12 04:52:41;;;;;;;24.37;18.77;;;7.90;99.90;;;;;;5072772;28;20224;-69
2023/02/12 04:55:09;;;;;;;26.23;19.23;;;7.90;99.90;;;;;;5072386;28;20266;-69
2023/02/12 04:57:36;;;;;;;24.40;19.60;;;7.80;99.90;;;;;;5073435;28;20582;-67
2023/02/12 05:00:05;;;;;;;23.10;18.47;;;7.80;99.90;;;;;;5072780;28;20678;-68
2023/02/12 05:02:34;;;;;;;24.53;18.97;;;7.80;99.90;;;;;;5073326;28;20209;-69
2023/02/12 05:05:00;;;;;;;28.67;20.90;;;7.60;99.90;;;;;;5072998;28;20209;-68
2023/02/12 05:07:29;;;;;;;23.43;18.43;;;7.60;99.90;;;;;;5073333;28;20213;-69
2023/02/12 05:09:56;;;;;;;22.93;19.20;;;7.60;99.90;;;;;;5073043;28;20292;-68
2023/02/12 05:12:24;;;;;;;23.70;19.17;;;7.60;99.90;;;;;;5072880;28;20289;-69
2023/02/12 05:14:51;;;;;;;24.60;18.57;;;7.60;99.90;;;;;;5073200;28;20252;-69
2023/02/12 05:17:18;;;;;;;24.33;19.33;;;7.40;99.90;;;;;;5073130;28;20212;-68
2023/02/12 05:19:44;;;;;;;25.50;20.60;;;7.40;99.90;;;;;;5072788;28;20514;-69
2023/02/12 05:22:11;;;;;;;26.60;20.10;;;7.40;99.90;;;;;;5072709;28;20353;-69
2023/02/12 05:24:39;;;;;;;26.73;18.83;;;7.30;99.90;;;;;;5073173;28;20235;-69
2023/02/12 05:27:07;;;;;;;25.83;19.07;;;7.30;99.90;;;;;;5073579;28;20205;-69
2023/02/12 05:29:35;;;;;;;25.83;19.67;;;7.20;99.90;;;;;;5073260;28;20280;-69
2023/02/12 05:32:02;;;;;;;25.60;20.00;;;7.20;99.90;;;;;;5072997;28;20294;-69
2023/02/12 05:34:29;;;;;;;23.73;19.73;;;7.10;99.90;;;;;;5072947;28;20708;-69
2023/02/12 05:36:56;;;;;;;25.43;20.47;;;7.20;99.90;;;;;;5072968;28;20205;-69
2023/02/12 05:39:22;;;;;;;27.60;20.23;;;7.20;99.90;;;;;;5073107;28;20273;-69
2023/02/12 05:41:49;;;;;;;26.57;20.27;;;7.10;99.90;;;;;;5072847;28;20281;-68
2023/02/12 05:44:16;;;;;;;27.10;20.97;;;7.10;99.90;;;;;;5073298;28;20578;-68
2023/02/12 05:46:44;;;;;;;28.63;20.53;;;7.00;99.90;;;;;;5073742;28;20208;-68
2023/02/12 05:49:11;;;;;;;26.60;20.03;;;7.00;99.90;;;;;;5073791;28;20224;-68
2023/02/12 05:51:38;;;;;;;28.17;20.03;;;6.90;99.90;;;;;;5073892;28;20261;-69
2023/02/12 05:54:07;;;;;;;26.53;20.63;;;6.90;99.90;;;;;;5074266;28;20231;-70
2023/02/12 05:56:36;;;;;;;29.20;21.10;;;6.80;99.90;;;;;;5074181;28;20212;-69
2023/02/12 05:59:07;;;;;;;26.67;19.97;;;6.70;99.90;;;;;;5076249;28;20220;-69
2023/02/12 06:01:36;;;;;;;26.67;19.30;;;6.60;99.90;;;;;;5079859;28;20212;-69
2023/02/12 06:04:06;;;;;;;26.87;20.30;;;6.50;99.90;;;;;;5085534;28;20251;-67
2023/02/12 06:06:34;;;;;;;29.00;20.43;;;6.40;99.90;;;;;;5090342;28;20265;-67
2023/02/12 06:09:01;;;;;;;26.73;21.83;;;6.40;99.90;;;;;;5083520;28;20298;-68
2023/02/12 06:11:28;;;;;;;31.37;21.73;;;6.50;99.90;;;;;;5080926;28;20201;-69
2023/02/12 06:13:55;;;;;;;27.50;21.50;;;6.50;99.90;;;;;;5076691;28;20239;-68
2023/02/12 06:16:24;;;;;;;27.97;21.70;;;6.50;99.90;;;;;;5074609;28;20208;-68
2023/02/12 06:18:51;;;;;;;31.40;21.60;;;6.50;99.90;;;;;;5074341;28;20387;-68
2023/02/12 06:21:20;;;;;;;26.80;21.30;;;6.50;99.90;;;;;;5073592;28;20200;-67
2023/02/12 06:23:47;;;;;;;27.87;20.73;;;6.60;99.90;;;;;;5073627;28;20275;-68
2023/02/12 06:26:14;;;;;;;29.13;21.00;;;6.60;99.90;;;;;;5073429;28;20240;-70
2023/02/12 06:28:41;;;;;;;30.30;21.87;;;6.60;99.90;;;;;;5073630;28;20220;-68
2023/02/12 06:31:18;;;;;;;27.13;20.80;;;6.70;99.90;;;;;;5072104;28;20839;-68
2023/02/12 06:33:45;;;;;;;27.73;21.17;;;6.70;99.90;;;;;;5072310;28;20228;-69
2023/02/12 06:36:11;;;;;;;29.73;21.73;;;6.80;99.90;;;;;;5071787;28;20208;-68
2023/02/12 06:38:39;;;;;;;26.07;20.83;;;6.90;99.90;;;;;;5072196;28;20204;-68
2023/02/12 06:41:06;;;;;;;27.53;20.63;;;7.00;99.90;;;;;;5071573;28;20288;-68
2023/02/12 06:43:33;;;;;;;27.67;20.07;;;7.00;99.90;;;;;;5071463;28;20711;-67
2023/02/12 06:46:01;;;;;;;28.17;20.87;;;7.00;99.90;;;;;;5071966;28;20261;-65
2023/02/12 06:48:28;;;;;;;30.37;20.50;;;7.30;99.90;;;;;;5071824;28;20200;-66
2023/02/12 06:50:55;;;;;;;26.47;19.80;;;7.20;99.90;;;;;;5071455;28;20212;-66
2023/02/12 06:53:22;;;;;;;26.37;20.90;;;7.20;99.90;;;;;;5071194;28;20236;-66
2023/02/12 06:55:50;;;;;;;28.73;20.83;;;7.30;99.90;;;;;;5071668;28;20201;-67
2023/02/12 06:58:16;;;;;;;28.03;20.13;;;7.40;99.90;;;;;;5071942;28;20201;-66
2023/02/12 07:00:43;;;;;;;26.73;20.17;;;7.40;99.90;;;;;;5072505;28;20231;-65
2023/02/12 07:03:10;;;;;;;26.27;20.27;;;7.50;99.90;;;;;;5072819;28;20235;-67
2023/02/12 07:05:39;;;;;;;29.30;21.70;;;7.50;99.90;;;;;;5072414;28;20205;-66
2023/02/12 07:08:06;;;;;;;26.33;20.40;;;7.50;99.90;;;;;;5072340;28;20216;-65
2023/02/12 07:10:33;;;;;;;30.70;22.93;;;7.50;99.90;;;;;;5071270;28;20216;-66
2023/02/12 07:13:01;;;;;;;29.37;22.67;;;7.50;99.90;;;;;;5071765;28;20232;-65
2023/02/12 07:15:27;;;;;;;27.23;20.67;;;7.50;99.90;;;;;;5071389;28;20212;-66
2023/02/12 07:17:54;;;;;;;27.43;20.73;;;7.60;99.90;;;;;;5072386;28;20292;-65
2023/02/12 07:20:21;;;;;;;26.67;21.07;;;7.70;99.90;;;;;;5075547;28;20208;-66
2023/02/12 07:22:48;;;;;;;28.23;20.57;;;7.80;99.90;;;;;;5074949;28;20232;-64
2023/02/12 07:25:14;;;;;;;27.27;20.60;;;7.90;99.90;;;;;;5075015;28;20205;-67
2023/02/12 07:27:41;;;;;;;26.73;21.40;;;8.00;99.90;;;;;;5074889;28;20726;-65
2023/02/12 07:30:10;;;;;;;30.77;22.27;;;8.00;99.90;;;;;;5074826;28;20312;-65
2023/02/12 07:32:37;;;;;;;26.43;21.20;;;8.10;99.90;;;;;;5074945;28;20225;-66
2023/02/12 07:35:04;;;;;;;28.23;21.90;;;8.10;99.90;;;;;;5074725;28;20704;-64
2023/02/12 07:37:31;;;;;;;34.37;22.20;;;8.20;99.90;;;;;;5074975;28;20212;-65
2023/02/12 07:39:59;;;;;;;31.00;22.87;;;8.30;99.90;;;;;;5076144;28;20216;-66
2023/02/12 07:42:25;;;;;;;29.97;22.60;;;8.20;99.90;;;;;;5075111;28;20223;-65
2023/02/12 07:44:52;;;;;;;29.30;21.53;;;8.30;99.90;;;;;;5075132;28;20247;-65
2023/02/12 07:47:20;;;;;;;28.07;22.63;;;8.40;99.90;;;;;;5075988;28;20212;-65
2023/02/12 07:49:49;;;;;;;30.60;22.97;;;8.50;99.90;;;;;;5075934;28;20234;-64
2023/02/12 07:52:16;;;;;;;31.83;22.90;;;8.60;99.90;;;;;;5074635;28;20287;-65
2023/02/12 07:54:42;;;;;;;32.00;23.67;;;8.60;99.90;;;;;;5075032;28;20229;-65
2023/02/12 07:57:09;;;;;;;30.00;21.77;;;8.70;99.90;;;;;;5074598;28;20221;-64
2023/02/12 07:59:36;;;;;;;41.60;29.93;;;8.80;99.90;;;;;;5074282;28;20300;-66
2023/02/12 08:02:02;;;;;;;30.33;23.77;;;8.80;99.90;;;;;;5074173;28;20209;-65
2023/02/12 08:04:30;;;;;;;30.00;22.80;;;8.90;99.90;;;;;;5074559;28;20278;-64
2023/02/12 08:06:57;;;;;;;31.73;23.33;;;9.00;99.90;;;;;;5074525;28;20204;-65
2023/02/12 08:09:27;;;;;;;30.20;23.93;;;9.10;99.90;;;;;;5074551;28;20287;-65
2023/02/12 08:11:53;;;;;;;29.50;23.23;;;9.20;99.90;;;;;;5074665;28;20205;-65
2023/02/12 08:14:21;;;;;;;30.43;23.50;;;9.30;99.90;;;;;;5073631;28;20232;-65
2023/02/12 08:16:49;;;;;;;29.93;23.20;;;9.30;99.90;;;;;;5074160;28;20220;-66
2023/02/12 08:19:16;;;;;;;30.03;24.60;;;9.30;99.90;;;;;;5074233;28;20208;-66
2023/02/12 08:21:46;;;;;;;32.00;23.93;;;9.30;99.90;;;;;;5073862;28;20209;-66
2023/02/12 08:24:13;;;;;;;31.40;23.20;;;9.30;99.90;;;;;;5074171;28;20247;-65
2023/02/12 08:26:40;;;;;;;32.33;24.73;;;9.10;99.90;;;;;;5073932;28;20216;-63
2023/02/12 08:29:09;;;;;;;32.47;24.67;;;9.10;99.90;;;;;;5074778;28;20215;-66
2023/02/12 08:31:38;;;;;;;30.63;24.47;;;9.10;99.90;;;;;;5076360;28;20197;-66
2023/02/12 08:34:05;;;;;;;31.33;23.30;;;8.90;99.90;;;;;;5075622;28;20320;-66
2023/02/12 08:36:37;;;;;;;29.30;23.63;;;8.90;99.90;;;;;;5075674;28;20204;-65
2023/02/12 08:39:07;;;;;;;29.17;22.53;;;8.90;99.90;;;;;;5076391;28;20209;-66
2023/02/12 08:41:34;;;;;;;30.83;23.70;;;9.00;99.90;;;;;;5075100;28;20232;-66
2023/02/12 08:44:03;;;;;;;30.67;24.10;;;9.10;99.90;;;;;;5074396;28;20252;-65
2023/02/12 08:46:33;;;;;;;33.10;24.23;;;9.20;99.90;;;;;;5073395;28;20209;-63
2023/02/12 08:49:01;;;;;;;33.83;24.97;;;9.20;99.90;;;;;;5074528;28;20209;-64
2023/02/12 08:51:31;;;;;;;30.50;23.67;;;9.20;99.90;;;;;;5073518;28;20209;-63
2023/02/12 08:54:00;;;;;;;34.37;24.37;;;9.10;99.90;;;;;;5073108;28;20233;-65
2023/02/12 08:56:31;;;;;;;32.70;25.30;;;9.10;99.90;;;;;;5073294;28;20691;-65
2023/02/12 08:58:59;;;;;;;33.83;25.03;;;9.10;99.90;;;;;;5073646;28;20200;-64
2023/02/12 09:01:27;;;;;;;36.63;24.97;;;9.20;99.90;;;;;;5073069;28;20205;-66
2023/02/12 09:03:54;;;;;;;36.37;26.27;;;9.30;99.90;;;;;;5073056;28;20236;-65
2023/02/12 09:06:23;;;;;;;30.87;24.53;;;9.40;99.90;;;;;;5073094;28;20212;-66
2023/02/12 09:08:51;;;;;;;36.30;27.13;;;9.60;99.90;;;;;;5073363;28;20619;-66
2023/02/12 09:11:23;;;;;;;36.43;24.50;;;9.80;99.90;;;;;;5072612;28;20254;-65
2023/02/12 09:13:51;;;;;;;32.93;24.63;;;10.00;99.90;;;;;;5072343;28;20294;-66
2023/02/12 09:16:17;;;;;;;36.40;26.87;;;10.30;99.90;;;;;;5072282;28;20205;-65
2023/02/12 09:18:45;;;;;;;34.70;25.87;;;10.50;99.90;;;;;;5072040;28;20212;-66
2023/02/12 09:21:13;;;;;;;34.67;26.33;;;10.80;99.90;;;;;;5071863;28;20291;-65
2023/02/12 09:23:40;;;;;;;36.40;24.80;;;11.10;99.90;;;;;;5072455;28;20581;-66
2023/02/12 09:26:08;;;;;;;39.10;25.93;;;11.40;99.90;;;;;;5072229;28;20205;-66
2023/02/12 09:28:35;;;;;;;36.13;25.30;;;11.60;99.90;;;;;;5072003;28;20205;-65
2023/02/12 09:31:06;;;;;;;31.73;23.43;;;11.80;99.90;;;;;;5071781;28;20216;-66
2023/02/12 09:33:33;;;;;;;31.00;23.30;;;12.10;99.90;;;;;;5071494;28;20727;-66
2023/02/12 09:36:02;;;;;;;30.17;21.33;;;12.30;99.90;;;;;;5072195;28;20209;-66
2023/02/12 09:38:29;;;;;;;26.80;20.47;;;12.30;99.90;;;;;;5071828;28;20200;-66
2023/02/12 09:41:11;;;;;;;26.67;19.43;;;12.30;99.90;;;;;;5071264;28;20216;-66
2023/02/12 09:43:44;;;;;;;25.53;19.37;;;12.20;99.90;;;;;;5071597;28;20243;-66
2023/02/12 09:46:21;;;;;;;30.30;21.10;;;12.20;99.90;;;;;;5071424;28;20227;-65
2023/02/12 09:49:00;;;;;;;30.53;23.53;;;12.40;99.90;;;;;;5071878;28;20208;-65
2023/02/12 09:51:29;;;;;;;23.37;17.60;;;12.60;99.90;;;;;;5071565;28;20200;-64
2023/02/12 09:54:03;;;;;;;22.83;17.50;;;12.60;99.90;;;;;;5071619;28;20231;-65
2023/02/12 09:56:31;;;;;;;24.37;18.93;;;12.70;99.90;;;;;;5071612;28;20209;-64
2023/02/12 09:59:01;;;;;;;25.60;19.60;;;12.70;99.90;;;;;;5071597;28;20247;-68
2023/02/12 10:01:29;;;;;;;27.53;20.23;;;12.80;99.90;;;;;;5071416;28;20585;-63
2023/02/12 10:03:57;;;;;;;25.23;19.00;;;13.00;99.90;;;;;;5071371;28;20224;-63
2023/02/12 10:06:26;;;;;;;22.20;17.50;;;13.20;99.90;;;;;;5069650;28;20204;-63
2023/02/12 10:09:26;;;;;;;25.90;18.17;;;13.20;99.90;;;;;;5048953;28;20205;-67
2023/02/12 10:12:00;;;;;;;21.47;16.77;;;13.20;99.90;;;;;;5068522;28;20308;-64
2023/02/12 10:14:44;;;;;;;16.67;12.17;;;13.10;99.90;;;;;;5071758;28;20609;-63
2023/02/12 10:17:22;;;;;;;17.77;13.40;;;13.10;99.90;;;;;;5072852;28;20307;-65
2023/02/12 10:20:15;;;;;;;19.20;14.10;;;13.10;99.90;;;;;;5073282;28;20228;-65
2023/02/12 10:22:52;;;;;;;15.80;11.60;;;13.10;99.90;;;;;;5072297;28;20211;-63
2023/02/12 10:25:26;;;;;;;10.93;8.97;;;13.20;99.90;;;;;;5071408;28;20300;-64
2023/02/12 10:27:55;;;;;;;13.13;10.10;;;13.10;99.90;;;;;;5070187;28;20216;-64
2023/02/12 10:30:26;;;;;;;8.70;5.60;;;13.20;99.90;;;;;;5070829;28;20224;-65
2023/02/12 10:33:00;;;;;;;5.30;4.20;;;13.20;99.90;;;;;;5070300;28;20286;-63
2023/02/12 10:35:27;;;;;;;6.20;4.33;;;13.20;99.90;;;;;;5070724;28;20227;-64
2023/02/12 10:38:00;;;;;;;4.77;4.00;;;13.70;99.90;;;;;;5070234;28;20680;-64
2023/02/12 10:40:31;;;;;;;3.87;3.47;;;13.00;99.90;;;;;;5070090;28;20283;-63
2023/02/12 10:42:59;;;;;;;3.60;3.00;;;12.80;99.90;;;;;;5069943;28;20783;-67
2023/02/12 10:45:30;;;;;;;3.43;3.00;;;12.50;99.90;;;;;;5070437;28;20243;-66
2023/02/12 10:48:08;;;;;;;4.57;3.30;;;12.40;99.90;;;;;;5070506;28;20208;-65
2023/02/12 10:50:45;;;;;;;3.83;2.93;;;12.60;99.90;;;;;;5069183;28;20328;-68
2023/02/12 10:53:20;;;;;;;3.83;3.13;;;12.60;99.90;;;;;;5048223;28;20249;-66
2023/02/12 10:55:47;;;;;;;3.53;3.13;;;12.60;99.90;;;;;;5054214;28;20200;-62
2023/02/12 10:58:20;;;;;;;4.20;2.80;;;12.50;99.90;;;;;;5054651;28;20214;-66
2023/02/12 11:00:47;;;;;;;3.60;3.00;;;12.60;99.90;;;;;;5054417;28;20206;-64
2023/02/12 11:03:23;;;;;;;3.00;2.60;;;12.60;99.90;;;;;;5053398;28;20221;-64
2023/02/12 11:05:50;;;;;;;4.53;2.80;;;12.50;99.90;;;;;;5054507;28;20209;-64
2023/02/12 11:08:34;;;;;;;3.87;2.80;;;12.50;99.90;;;;;;5054225;28;20612;-64
2023/02/12 11:11:08;;;;;;;3.20;2.60;;;12.60;99.90;;;;;;5053620;28;20224;-63
2023/02/12 11:13:37;;;;;;;4.47;2.50;;;12.60;99.90;;;;;;5053434;28;20689;-64
2023/02/12 11:16:04;;;;;;;3.00;2.30;;;12.40;99.90;;;;;;5053460;28;20743;-63
2023/02/12 11:18:35;;;;;;;3.20;2.20;;;12.30;99.90;;;;;;5054116;28;20291;-63
2023/02/12 11:21:04;;;;;;;3.27;2.17;;;12.30;99.90;;;;;;5053572;28;20205;-62
2023/02/12 11:23:33;;;;;;;3.70;2.50;;;12.40;99.90;;;;;;5053799;28;20221;-65
2023/02/12 11:26:02;;;;;;;2.83;2.37;;;12.60;99.90;;;;;;5053366;28;20232;-62
2023/02/12 11:28:30;;;;;;;4.70;2.40;;;12.70;99.90;;;;;;5053321;28;20209;-63
2023/02/12 11:30:59;;;;;;;3.20;2.53;;;12.70;99.90;;;;;;5053784;28;20667;-67
2023/02/12 11:33:34;;;;;;;3.00;2.10;;;12.80;99.90;;;;;;5054138;28;20291;-65
2023/02/12 11:36:05;;;;;;;2.43;2.13;;;12.70;99.90;;;;;;5053931;28;20677;-65
2023/02/12 11:38:34;;;;;;;3.17;2.37;;;12.60;99.90;;;;;;5053737;28;20216;-62
2023/02/12 11:41:16;;;;;;;3.03;2.40;;;12.50;99.90;;;;;;5053513;28;20205;-62
2023/02/12 11:43:44;;;;;;;4.00;2.90;;;12.60;99.90;;;;;;5053327;28;20232;-62
2023/02/12 11:46:20;;;;;;;3.00;2.37;;;12.70;99.90;;;;;;5053476;28;20288;-69
2023/02/12 11:48:48;;;;;;;5.30;2.67;;;12.80;99.90;;;;;;5055245;28;20261;-71
2023/02/12 11:51:19;;;;;;;16.13;11.00;;;13.00;99.90;;;;;;5072941;28;20205;-63
2023/02/12 11:53:50;;;;;;;2.70;2.43;;;13.10;99.90;;;;;;5073217;28;20251;-61
2023/02/12 11:56:17;;;;;;;2.83;2.30;;;13.30;99.90;;;;;;5073889;28;20698;-69
2023/02/12 11:58:45;;;;;;;3.50;2.60;;;13.30;99.90;;;;;;5073733;28;20420;-70
2023/02/12 12:01:18;;;;;;;3.10;2.63;;;13.20;99.90;;;;;;5074331;28;20292;-68
2023/02/12 12:03:53;;;;;;;3.63;2.83;;;13.10;99.90;;;;;;5073924;28;20225;-67
2023/02/12 12:06:28;;;;;;;3.13;2.70;;;13.10;99.90;;;;;;5074384;28;20652;-67
2023/02/12 12:09:02;;;;;;;3.67;2.60;;;12.60;99.90;;;;;;5074407;28;20676;-67
2023/02/12 12:11:35;;;;;;;4.23;3.20;;;12.20;99.90;;;;;;5073972;28;20235;-67
2023/02/12 12:14:07;;;;;;;4.03;3.30;;;11.90;99.90;;;;;;5073602;28;20233;-66
2023/02/12 12:22:23;;;;;;;3.27;2.57;;;11.70;99.90;;;;;;5073281;28;20201;-67
2023/02/12 12:24:55;;;;;;;4.40;3.30;;;11.70;99.90;;;;;;5073869;28;20217;-66
2023/02/12 12:28:04;;;;;;;4.37;3.30;;;11.90;99.90;;;;;;5073797;28;20776;-67
2023/02/12 12:31:04;;;;;;;5.07;3.57;;;12.10;99.90;;;;;;5073434;28;20208;-67
2023/02/12 12:33:37;;;;;;;4.57;3.60;;;12.20;99.90;;;;;;5026247;28;20225;-66
2023/02/12 12:36:43;;;;;;;4.87;3.80;;;12.10;99.90;;;;;;5073897;28;20212;-65
2023/02/12 12:39:18;;;;;;;4.47;3.60;;;12.00;99.90;;;;;;5073798;28;20239;-66
2023/02/12 12:42:14;;;;;;;5.90;4.10;;;11.80;99.90;;;;;;5074438;28;20208;-66
2023/02/12 12:45:03;;;;;;;5.93;4.00;;;11.70;99.90;;;;;;5073632;28;20329;-65
2023/02/12 12:47:36;;;;;;;5.60;4.27;;;11.50;99.90;;;;;;5073634;28;20205;-66
2023/02/12 12:50:28;;;;;;;5.33;3.63;;;11.50;99.90;;;;;;5073972;28;20205;-67
2023/02/12 12:53:11;;;;;;;5.77;4.17;;;11.40;99.90;;;;;;5073234;28;20225;-67
2023/02/12 12:56:05;;;;;;;5.83;4.10;;;11.20;99.90;;;;;;5073106;28;20228;-68
2023/02/12 12:58:41;;;;;;;6.00;4.60;;;11.00;99.90;;;;;;5073626;28;20205;-66
2023/02/12 13:01:25;;;;;;;5.73;4.20;;;10.90;99.90;;;;;;5072475;28;20304;-68
2023/02/12 13:04:15;;;;;;;6.63;4.63;;;11.10;99.90;;;;;;5072621;28;20228;-67
2023/02/12 13:06:55;;;;;;;6.87;4.13;;;11.30;99.90;;;;;;5073106;28;20215;-67
2023/02/12 13:10:02;;;;;;;6.27;4.30;;;11.50;99.90;;;;;;5073279;28;20674;-67